createdAt,value
2023-03-22T00:01:43.325Z,23.50
2023-03-22T00:04:48.428Z,29.00
2023-03-22T00:07:54.370Z,25.75
2023-03-22T00:10:57.849Z,24.75
2023-03-22T00:14:01.555Z,27.25
2023-03-22T00:17:05.292Z,27.00
2023-03-22T00:20:11.605Z,28.75
2023-03-22T00:23:15.168Z,30.00
2023-03-22T00:26:18.850Z,18.25
2023-03-22T00:29:22.959Z,27.00
2023-03-22T00:32:26.749Z,25.00
2023-03-22T00:35:31.832Z,26.50
2023-03-22T00:38:44.813Z,21.50
2023-03-22T00:41:49.827Z,32.50
2023-03-22T00:44:54.698Z,29.00
2023-03-22T00:47:58.145Z,29.50
2023-03-22T00:51:03.863Z,26.00
2023-03-22T00:54:09.098Z,30.75
2023-03-22T00:57:14.224Z,28.25
2023-03-22T01:00:18.400Z,28.00
2023-03-22T01:03:23.116Z,26.75
2023-03-22T01:06:28.100Z,26.00
2023-03-22T01:09:33.922Z,20.00
2023-03-22T01:12:37.323Z,27.75
2023-03-22T01:15:41.460Z,26.00
2023-03-22T01:18:45.709Z,28.25
2023-03-22T01:21:51.250Z,24.50
2023-03-22T01:24:54.824Z,21.50
2023-03-22T01:27:58.218Z,30.25
2023-03-22T01:31:03.419Z,27.75
2023-03-22T01:34:07.536Z,30.75
2023-03-22T01:37:12.729Z,33.25
2023-03-22T01:40:20.850Z,32.50
2023-03-22T01:43:24.445Z,27.25
2023-03-22T01:46:29.454Z,33.75
2023-03-22T01:49:35.852Z,34.00
2023-03-22T01:52:42.905Z,33.75
2023-03-22T01:56:00.205Z,35.00
2023-03-22T01:59:09.077Z,30.00
2023-03-22T02:02:31.064Z,26.50
2023-03-22T02:05:49.545Z,30.00
2023-03-22T02:08:58.663Z,35.00
2023-03-22T02:12:17.489Z,32.25
2023-03-22T02:15:25.372Z,31.00
2023-03-22T02:18:44.985Z,31.00
2023-03-22T02:22:11.019Z,32.50
2023-03-22T02:25:49.814Z,31.75
2023-03-22T02:29:01.800Z,23.50
2023-03-22T02:32:54.908Z,33.00
2023-03-22T02:36:35.814Z,31.75
2023-03-22T02:39:48.853Z,32.50
2023-03-22T02:42:59.294Z,33.75
2023-03-22T02:46:09.041Z,31.25
2023-03-22T02:49:21.190Z,35.00
2023-03-22T02:52:31.916Z,34.00
2023-03-22T02:55:43.829Z,33.50
2023-03-22T02:58:52.115Z,36.00
2023-03-22T03:01:58.991Z,35.50
2023-03-22T03:05:04.435Z,32.50
2023-03-22T03:08:09.851Z,34.00
2023-03-22T03:11:17.081Z,33.50
2023-03-22T03:14:26.619Z,32.25
2023-03-22T03:17:43.504Z,33.00
2023-03-22T03:21:00.420Z,30.75
2023-03-22T03:24:15.655Z,30.75
2023-03-22T03:27:27.518Z,28.25
2023-03-22T03:30:36.158Z,30.00
2023-03-22T03:33:46.769Z,21.50
2023-03-22T03:36:58.086Z,33.00
2023-03-22T03:40:06.743Z,30.50
2023-03-22T03:43:15.649Z,26.00
2023-03-22T03:46:19.392Z,30.25
2023-03-22T03:49:25.167Z,33.00
2023-03-22T03:52:30.089Z,33.00
2023-03-22T03:55:34.705Z,30.75
2023-03-22T03:58:39.621Z,36.25
2023-03-22T04:01:50.673Z,32.50
2023-03-22T04:04:58.961Z,32.00
2023-03-22T04:08:02.979Z,33.75
2023-03-22T04:11:07.482Z,33.50
2023-03-22T04:14:13.157Z,34.50
2023-03-22T04:17:16.637Z,29.25
2023-03-22T04:20:20.966Z,32.75
2023-03-22T04:23:25.773Z,32.50
2023-03-22T04:26:30.022Z,33.50
2023-03-22T04:30:18.944Z,25.50
2023-03-22T04:33:57.624Z,34.00
2023-03-22T04:37:22.721Z,34.00
2023-03-22T04:40:36.658Z,34.00
2023-03-22T04:43:53.707Z,38.00
2023-03-22T04:46:58.826Z,31.50
2023-03-22T04:50:02.618Z,35.00
2023-03-22T04:53:12.488Z,32.50
2023-03-22T04:56:17.376Z,34.00
2023-03-22T04:59:22.086Z,33.00
2023-03-22T05:02:27.954Z,36.75
2023-03-22T05:05:32.070Z,36.25
2023-03-22T05:08:36.424Z,33.00
2023-03-22T05:11:40.843Z,29.75
2023-03-22T05:15:10.719Z,37.00
2023-03-22T05:18:17.111Z,36.00
2023-03-22T05:21:22.243Z,35.00
2023-03-22T05:24:30.676Z,39.00
2023-03-22T05:27:35.133Z,36.25
2023-03-22T05:30:51.569Z,39.25
2023-03-22T05:34:04.513Z,40.00
2023-03-22T05:37:10.965Z,41.00
2023-03-22T05:40:40.751Z,39.00
2023-03-22T05:43:44.659Z,37.25
2023-03-22T05:46:48.721Z,36.50
2023-03-22T05:49:59.463Z,39.50
2023-03-22T05:53:05.144Z,39.00
2023-03-22T05:56:16.667Z,36.00
2023-03-22T05:59:23.683Z,39.50
2023-03-22T06:02:27.510Z,39.00
2023-03-22T06:05:35.097Z,39.25
2023-03-22T06:08:39.624Z,41.50
2023-03-22T06:11:43.146Z,39.00
2023-03-22T06:14:46.663Z,38.50
2023-03-22T06:18:12.742Z,40.00
2023-03-22T06:21:21.240Z,39.00
2023-03-22T06:24:30.743Z,42.00
2023-03-22T06:27:34.495Z,40.25
2023-03-22T06:30:38.394Z,39.25
2023-03-22T06:34:02.988Z,42.00
2023-03-22T06:37:14.190Z,34.50
2023-03-22T06:40:19.447Z,42.00
2023-03-22T06:43:23.056Z,37.00
2023-03-22T06:46:31.019Z,39.00
2023-03-22T06:49:45.111Z,39.50
2023-03-22T06:52:56.265Z,40.25
2023-03-22T06:55:59.761Z,40.50
2023-03-22T06:59:04.131Z,34.00
2023-03-22T07:02:07.693Z,40.00
2023-03-22T07:05:11.792Z,44.50
2023-03-22T07:08:17.437Z,42.00
2023-03-22T07:11:26.642Z,39.00
2023-03-22T07:14:35.589Z,36.00
2023-03-22T07:18:07.735Z,38.50
2023-03-22T07:21:11.371Z,39.25
2023-03-22T07:24:19.002Z,39.00
2023-03-22T07:27:23.134Z,36.00
2023-03-22T07:30:28.843Z,38.75
2023-03-22T07:33:35.071Z,41.50
2023-03-22T07:36:41.159Z,36.75
2023-03-22T07:39:48.344Z,41.50
2023-03-22T07:42:53.775Z,37.75
2023-03-22T07:46:13.677Z,38.50
2023-03-22T07:49:55.753Z,36.00
2023-03-22T07:53:04.769Z,34.00
2023-03-22T07:56:10.707Z,40.50
2023-03-22T07:59:16.617Z,34.50
2023-03-22T08:02:21.171Z,39.00
2023-03-22T08:05:28.703Z,39.50
2023-03-22T08:08:38.680Z,38.50
2023-03-22T08:11:43.478Z,39.75
2023-03-22T08:14:50.586Z,39.50
2023-03-22T08:17:59.178Z,24.25
2023-03-22T08:21:09.898Z,33.75
2023-03-22T08:24:15.538Z,30.75
2023-03-22T08:27:29.691Z,33.50
2023-03-22T08:30:35.145Z,36.00
2023-03-22T08:33:39.687Z,34.00
2023-03-22T08:36:43.824Z,30.00
2023-03-22T08:39:48.468Z,35.00
2023-03-22T08:43:19.415Z,33.75
2023-03-22T08:46:23.167Z,34.00
2023-03-22T08:49:28.265Z,33.00
2023-03-22T08:52:38.661Z,30.00
2023-03-22T08:56:01.827Z,24.75
2023-03-22T08:59:21.899Z,30.00
2023-03-22T09:02:48.713Z,30.50
2023-03-22T09:05:52.495Z,33.25
2023-03-22T09:08:56.968Z,22.50
2023-03-22T09:12:01.009Z,28.50
2023-03-22T09:15:14.935Z,25.00
2023-03-22T09:18:24.416Z,29.50
2023-03-22T09:21:29.913Z,31.75
2023-03-22T09:24:47.178Z,32.00
2023-03-22T09:27:51.160Z,38.50
2023-03-22T09:30:56.342Z,30.00
2023-03-22T09:33:59.931Z,47.75
2023-03-22T09:37:04.278Z,27.50
2023-03-22T09:40:19.647Z,15.75
2023-03-22T09:43:24.554Z,29.00
2023-03-22T09:46:35.807Z,30.00
2023-03-22T09:49:53.429Z,22.00
2023-03-22T09:52:57.857Z,27.50
2023-03-22T09:56:08.481Z,28.25
2023-03-22T09:59:18.749Z,26.75
2023-03-22T10:02:39.053Z,22.25
2023-03-22T10:05:47.476Z,15.33
2023-03-22T10:09:00.988Z,20.67
2023-03-22T10:12:16.751Z,18.00
2023-03-22T10:15:22.592Z,16.67
2023-03-22T10:18:31.607Z,13.00
2023-03-22T10:21:36.411Z,15.67
2023-03-22T10:24:42.615Z,18.00
2023-03-22T10:27:50.076Z,20.67
2023-03-22T10:30:56.670Z,17.00
2023-03-22T10:34:06.789Z,11.33
2023-03-22T10:37:15.574Z,14.00
2023-03-22T10:40:23.125Z,10.33
2023-03-22T10:43:33.560Z,19.33
2023-03-22T10:46:41.979Z,17.00
2023-03-22T10:49:54.782Z,17.33
2023-03-22T10:53:04.212Z,15.00
2023-03-22T10:56:15.821Z,22.00
2023-03-22T10:59:47.384Z,18.00
2023-03-22T11:02:54.888Z,19.67
2023-03-22T11:06:08.094Z,21.33
2023-03-22T11:09:18.936Z,17.33
2023-03-22T11:12:22.586Z,18.00
2023-03-22T11:15:30.280Z,17.33
2023-03-22T11:18:36.215Z,18.00
2023-03-22T11:21:44.194Z,17.33
2023-03-22T11:24:49.039Z,19.00
2023-03-22T11:27:54.638Z,18.33
2023-03-22T11:31:05.398Z,17.33
2023-03-22T11:34:18.797Z,22.33
2023-03-22T11:37:23.830Z,18.00
2023-03-22T11:40:30.015Z,19.00
2023-03-22T11:43:37.388Z,17.33
2023-03-22T11:46:49.565Z,18.33
2023-03-22T11:49:54.668Z,16.00
2023-03-22T11:53:03.141Z,18.67
2023-03-22T11:56:08.717Z,16.33
2023-03-22T11:59:16.893Z,18.33
2023-03-22T12:02:26.975Z,29.33
2023-03-22T12:05:33.248Z,19.33
2023-03-22T12:08:44.065Z,18.67
2023-03-22T12:11:50.847Z,19.67
2023-03-22T12:15:02.107Z,21.00
2023-03-22T12:18:09.963Z,15.33
2023-03-22T12:21:13.480Z,10.33
2023-03-22T12:24:26.889Z,10.00
2023-03-22T12:27:35.439Z,15.33
2023-03-22T12:30:43.713Z,16.33
2023-03-22T12:33:50.443Z,14.00
2023-03-22T12:36:57.450Z,10.00
2023-03-22T12:40:06.925Z,10.00
2023-03-22T12:43:18.087Z,5.33
2023-03-22T12:46:23.937Z,6.67
2023-03-22T12:49:35.830Z,6.67
2023-03-22T12:52:45.695Z,5.33
2023-03-22T12:55:52.088Z,4.33
2023-03-22T12:58:59.664Z,5.00
2023-03-22T13:02:12.254Z,4.67
2023-03-22T13:05:16.778Z,4.33
2023-03-22T13:08:22.588Z,5.00
2023-03-22T13:11:27.532Z,4.00
2023-03-22T13:15:00.239Z,4.00
2023-03-22T13:18:04.006Z,2.00
2023-03-22T13:21:15.528Z,2.67
2023-03-22T13:24:24.665Z,4.00
2023-03-22T13:27:38.124Z,2.67
2023-03-22T13:30:50.434Z,2.00
2023-03-22T13:33:54.956Z,4.00
2023-03-22T13:36:59.369Z,4.00
2023-03-22T13:40:04.484Z,5.67
2023-03-22T13:43:27.194Z,5.00
2023-03-22T13:46:50.843Z,5.00
2023-03-22T13:50:08.847Z,1.67
2023-03-22T13:53:22.178Z,2.67
2023-03-22T13:56:34.669Z,2.00
2023-03-22T14:00:14.390Z,0.00
2023-03-22T14:03:27.766Z,1.00
2023-03-22T14:06:34.249Z,1.00
2023-03-22T14:09:44.887Z,2.00
2023-03-22T14:12:53.010Z,2.00
2023-03-22T14:16:04.113Z,1.00
2023-03-22T14:19:13.032Z,2.00
